Latest Weather Observations for Trepell

IDQ60801

Issued at 4:02 pm EST Saturday 27 May 2017 (issued every 30 minutes, with the page automatically refreshed every 10 minutes)

About weather observations | Map of weather stations | Latest weather observations for QLD | Other Formats
Station Details ID: 037036 Name: TREPELL AIRPORT Lat: -21.84 Lon: 140.89 Height: 266.2 m
Data from the previous 72 hours. | See also: Recent months at Trepell
Date/Time
EST
Temp
°C
App
Temp
°C
Dew
Point
°C
Rel
Hum
%
Delta-T
°C
Wind Press
QNH
hPa
Press
MSL
hPa
Rain since
9am
mm
Dir  Spd
km/h
Gust
km/h
Spd
kts
Gust
kts
27/04:00pm 29.5 23.5 -2.9 12 14.8 S 19 30 10 16 1015.8 1014.9 0.0
27/03:30pm 29.5 23.5 -2.9 12 14.8 SSW 19 26 10 14 1015.6 1014.7 0.0
27/03:00pm 29.4 23.8 -2.9 12 14.8 SE 17 24 9 13 1015.6 1014.7 0.0
27/02:30pm 30.0 24.4 -2.5 12 15.0 SSE 17 30 9 16 1015.7 1014.8 0.0
27/02:00pm 30.0 24.4 -2.5 12 15.0 SSE 17 28 9 15 1016.2 1015.2 0.0
27/01:30pm 29.1 24.4 -2.1 13 14.4 SSE 13 24 7 13 1016.4 1015.4 0.0
27/01:00pm 28.6 22.8 -1.5 14 14.0 S 19 24 10 13 1017.0 1016.1 0.0
27/12:30pm 28.2 23.2 -0.9 15 13.7 SSW 15 22 8 12 1017.5 1016.6 0.0
27/12:00pm 27.7 22.3 -1.3 15 13.5 S 17 22 9 12 1017.8 1016.9 0.0
27/11:30am 26.8 23.3 1.3 19 12.3 SSE 9 19 5 10 1018.2 1017.3 0.0
27/11:00am 25.2 20.9 0.7 20 11.6 S 13 20 7 11 1018.5 1017.6 0.0
27/10:30am 24.6 20.8 1.5 22 11.0 SSE 11 15 6 8 1018.8 1017.9 0.0
27/10:00am 23.1 19.2 0.9 23 10.3 SE 11 13 6 7 1019.2 1018.3 0.0
27/09:30am 21.2 17.6 0.4 25 9.5 SSW 9 11 5 6 1019.1 1018.2 0.0
27/09:00am 19.2 15.1 -0.2 27 8.6 SSW 11 13 6 7 1019.1 1018.2 0.0
27/08:30am 17.1 13.6 -1.1 29 7.8 WSW 7 9 4 5 1018.8 1017.9 0.0
27/08:00am 14.6 10.6 -1.9 32 6.7 WSW 9 11 5 6 1018.6 1017.7 0.0
27/07:30am 12.2 8.1 -2.8 35 5.9 WSW 9 11 5 6 1018.3 1017.4 0.0
27/07:00am 11.8 7.7 -3.1 35 5.8 SW 9 9 5 5 1018.0 1017.1 0.0
27/06:30am 12.3 8.6 -3.1 34 6.0 SSW 7 11 4 6 1017.8 1016.9 0.0
27/06:00am 12.3 7.8 -3.1 34 6.0 SW 11 13 6 7 1017.4 1016.5 0.0
27/05:30am 12.4 7.9 -3.4 33 6.1 SW 11 13 6 7 1017.5 1016.6 0.0
27/05:00am 12.7 7.8 -3.5 32 6.3 SSW 13 13 7 7 1017.3 1016.4 0.0
27/04:30am 13.1 8.2 -3.6 31 6.5 SW 13 15 7 8 1017.4 1016.5 0.0
27/04:00am 13.4 8.1 -3.8 30 6.7 SW 15 17 8 9 1017.2 1016.3 0.0
27/03:30am 13.6 8.7 -3.6 30 6.7 SW 13 15 7 8 1017.2 1016.3 0.0
27/03:00am 14.1 9.2 -3.6 29 6.9 SW 13 17 7 9 1017.2 1016.3 0.0
27/02:30am 14.2 9.3 -3.6 29 7.0 SW 13 17 7 9 1017.5 1016.6 0.0
27/02:00am 14.2 9.7 -3.6 29 7.0 SW 11 13 6 7 1017.7 1016.8 0.0
27/01:30am 14.7 10.2 -3.6 28 7.2 SW 11 11 6 6 1017.8 1016.9 0.0
27/01:00am 15.7 11.1 -3.7 26 7.7 SSW 11 13 6 7 1017.9 1017.0 0.0
27/12:30am 16.4 11.5 -3.1 26 7.9 SW 13 17 7 9 1018.0 1017.1 0.0
27/12:00am 16.4 11.5 -3.7 25 8.1 SW 13 15 7 8 1017.9 1017.0 0.0
 
Date/Time
EST
Temp
°C
App
Temp
°C
Dew
Point
°C
Rel
Hum
%
Delta-T
°C
Wind Press
QNH
hPa
Press
MSL
hPa
Rain since
9am
mm
Dir  Spd
km/h
Gust
km/h
Spd
kts
Gust
kts
26/11:30pm 17.0 12.1 -3.1 25 8.2 SW 13 15 7 8 1018.0 1017.1 0.0
26/11:00pm 17.5 13.0 -3.3 24 8.5 SW 11 15 6 8 1018.0 1017.1 0.0
26/10:30pm 18.6 13.8 -2.9 23 9.0 SW 13 17 7 9 1018.0 1017.1 0.0
26/10:00pm 19.6 14.4 -2.7 22 9.4 SSW 15 19 8 10 1017.9 1017.0 0.0
26/09:30pm 20.2 14.6 -2.8 21 9.8 SW 17 20 9 11 1017.7 1016.8 0.0
26/09:00pm 21.2 15.6 -2.6 20 10.2 SW 17 26 9 14 1017.7 1016.8 0.0
26/08:30pm 21.2 16.0 -2.6 20 10.2 SW 15 19 8 10 1017.4 1016.5 0.0
26/08:00pm 20.2 15.4 -2.8 21 9.7 WSW 13 15 7 8 1017.1 1016.2 0.0
26/07:30pm 21.6 17.1 -3.0 19 10.5 WSW 11 13 6 7 1016.7 1015.7 0.0
26/07:00pm 22.4 18.0 -2.3 19 10.8 WSW 11 13 6 7 1016.4 1015.4 0.0
26/06:30pm 23.6 18.9 -2.1 18 11.4 SW 13 15 7 8 1016.0 1015.0 0.0
26/06:00pm 25.1 19.9 -2.5 16 12.3 SW 15 17 8 9 1015.5 1014.6 0.0
26/05:30pm 26.5 21.4 -2.2 15 13.0 SW 15 20 8 11 1015.3 1014.4 0.0
26/05:00pm 27.2 21.6 -2.6 14 13.5 SW 17 22 9 12 1015.1 1014.2 0.0
26/04:30pm 27.9 22.2 -4.1 12 14.2 SW 17 24 9 13 1015.1 1014.2 0.0
26/04:00pm 27.9 22.2 -4.1 12 14.2 SSW 17 22 9 12 1015.0 1014.1 0.0
26/03:30pm 28.2 22.1 -3.9 12 14.3 SW 19 24 10 13 1015.1 1014.2 0.0
26/03:00pm 27.7 21.6 -4.3 12 14.1 SSW 19 26 10 14 1015.3 1014.4 0.0
26/02:30pm 27.5 22.2 -3.3 13 13.8 SW 15 24 8 13 1015.5 1014.6 0.0
26/02:00pm 27.2 21.1 -3.6 13 13.7 SSW 19 30 10 16 1016.0 1015.0 0.0
26/01:30pm 26.6 20.6 -3.1 14 13.2 SSW 19 35 10 19 1016.5 1015.5 0.0
26/01:00pm 26.5 21.9 -1.3 16 12.8 SSW 13 28 7 15 1017.2 1016.3 0.0
26/12:30pm 26.0 20.7 -0.9 17 12.4 S 17 26 9 14 1017.7 1016.8 0.0
26/12:00pm 25.8 20.5 -0.3 18 12.2 S 17 24 9 13 1018.3 1017.4 0.0
26/11:30am 25.1 20.3 -0.1 19 11.7 SSW 15 22 8 12 1018.6 1017.7 0.0
26/11:00am 23.7 19.7 0.7 22 10.7 S 11 17 6 9 1019.1 1018.2 0.0
26/10:30am 21.8 18.5 0.4 24 9.8 SSW 7 11 4 6 1019.4 1018.5 0.0
26/10:00am 20.5 16.8 -0.2 25 9.2 SSW 9 13 5 7 1019.7 1018.8 0.0
26/09:30am 19.0 15.2 -0.4 27 8.5 SSW 9 11 5 6 1019.7 1018.8 0.0
26/09:00am 17.7 13.4 -1.5 27 8.2 SW 11 13 6 7 1019.6 1018.7 0.0
26/08:30am 16.4 12.5 -1.7 29 7.6 SW 9 11 5 6 1019.4 1018.5 0.0
26/08:00am 14.4 10.4 -2.1 32 6.7 WSW 9 11 5 6 1019.0 1018.1 0.0
26/07:30am 12.3 8.6 -2.7 35 5.9 WSW 7 9 4 5 1018.8 1017.9 0.0
26/07:00am 12.3 7.5 -2.3 36 5.8 SW 13 15 7 8 1018.5 1017.6 0.0
26/06:30am 12.4 8.4 -2.6 35 5.9 W 9 11 5 6 1018.4 1017.5 0.0
26/06:00am 13.7 9.3 -2.3 33 6.4 WSW 11 15 6 8 1018.1 1017.2 0.0
26/05:30am 14.6 9.9 -1.9 32 6.8 SW 13 17 7 9 1018.1 1017.2 0.0
26/05:00am 14.5 9.8 -2.0 32 6.7 WSW 13 15 7 8 1018.0 1017.1 0.0
26/04:30am 15.2 10.6 -1.4 32 6.9 SW 13 15 7 8 1018.1 1017.2 0.0
26/04:00am 15.1 10.8 -1.9 31 7.0 SSW 11 15 6 8 1018.0 1017.1 0.0
26/03:30am 15.5 11.2 -2.0 30 7.2 SW 11 13 6 7 1018.3 1017.4 0.0
26/03:00am 16.0 11.3 -2.0 29 7.4 SW 13 15 7 8 1018.3 1017.4 0.0
26/02:30am 16.6 11.6 -1.5 29 7.6 SW 15 17 8 9 1018.4 1017.5 0.0
26/02:00am 16.4 12.2 -1.2 30 7.4 SW 11 13 6 7 1018.6 1017.7 0.0
26/01:30am 16.7 12.5 -0.9 30 7.5 SW 11 13 6 7 1018.8 1017.9 0.0
26/01:00am 17.5 14.4 0.2 31 7.6 SW 6 7 3 4 1018.8 1017.9 0.0
26/12:30am 18.4 15.1 0.1 29 8.1 SSW 7 9 4 5 1018.9 1018.0 0.0
26/12:00am 18.1 14.0 -0.2 29 8.0 SSW 11 13 6 7 1019.0 1018.1 0.0
 
Date/Time
EST
Temp
°C
App
Temp
°C
Dew
Point
°C
Rel
Hum
%
Delta-T
°C
Wind Press
QNH
hPa
Press
MSL
hPa
Rain since
9am
mm
Dir  Spd
km/h
Gust
km/h
Spd
kts
Gust
kts
25/11:30pm 19.0 14.9 0.1 28 8.4 SSW 11 13 6 7 1019.1 1018.2 0.0
25/11:00pm 20.0 16.3 -0.1 26 9.0 S 9 13 5 7 1019.3 1018.4 0.0
25/10:30pm 21.1 16.5 -0.8 23 9.7 SSW 13 17 7 9 1019.1 1018.2 0.0
25/10:00pm 23.3 17.6 0.4 22 10.6 SSW 20 33 11 18 1019.1 1018.2 0.0
25/09:30pm 23.1 18.2 -0.4 21 10.7 S 15 19 8 10 1018.8 1017.9 0.0
25/09:00pm 21.8 16.9 -0.2 23 9.9 SSW 15 17 8 9 1018.7 1017.8 0.0
25/08:30pm 21.7 17.2 -0.3 23 9.9 SSW 13 17 7 9 1018.7 1017.8 0.0
25/08:00pm 22.4 18.0 0.3 23 10.1 S 13 17 7 9 1018.5 1017.6 0.0
25/07:30pm 23.7 20.1 0.7 22 10.8 SSE 9 11 5 6 1018.1 1017.2 0.0
25/07:00pm 23.9 19.9 0.3 21 11.0 SSE 11 13 6 7 1017.8 1016.9 0.0
25/06:30pm 25.5 21.1 0.2 19 11.9 SSE 13 15 7 8 1017.5 1016.6 0.0
25/06:00pm 27.5 22.8 1.1 18 12.8 SSE 15 20 8 11 1017.2 1016.3 0.0
25/05:30pm 28.7 23.9 0.4 16 13.7 S 15 22 8 12 1017.0 1016.1 0.0
25/05:00pm 29.3 24.6 0.9 16 13.9 S 15 22 8 12 1016.7 1015.7 0.0
25/04:30pm 30.0 24.6 1.5 16 14.1 S 19 28 10 15 1016.7 1015.7 0.0
25/04:00pm 30.2 26.1 2.5 17 14.0 S 13 20 7 11 1016.6 1015.6 0.0
25/03:30pm 30.3 26.2 2.5 17 14.1 S 13 22 7 12 1016.7 1015.7 0.0
25/03:00pm 30.5 26.1 2.7 17 14.1 S 15 22 8 12 1016.8 1015.8 0.0
25/02:30pm 30.5 26.3 1.9 16 14.3 S 13 20 7 11 1017.1 1016.2 0.0
25/02:00pm 30.3 25.9 2.5 17 14.0 SE 15 24 8 13 1017.3 1016.4 0.0
25/01:30pm 30.2 25.0 2.5 17 14.0 SSE 19 30 10 16 1017.9 1017.0 0.0
25/01:00pm 29.9 24.8 3.0 18 13.7 SSE 19 30 10 16 1018.5 1017.6 0.0
25/12:30pm 29.9 25.3 3.8 19 13.5 SE 17 24 9 13 1018.9 1018.0 0.0
25/12:00pm 30.4 26.0 4.9 20 13.4 SE 17 24 9 13 1019.3 1018.4 0.0
25/11:30am 29.5 25.3 5.6 22 12.7 SE 17 24 9 13 1019.6 1018.7 0.0
25/11:00am 28.1 24.4 6.2 25 11.6 ESE 15 24 8 13 1020.1 1019.1 0.0
25/10:30am 26.6 23.9 5.5 26 11.0 SSE 9 15 5 8 1020.5 1019.6 0.0
25/10:00am 24.5 21.5 4.3 27 10.1 SE 9 11 5 6 1020.7 1019.8 0.0
25/09:30am 22.4 19.1 2.5 27 9.5 SSE 9 13 5 7 1020.6 1019.7 0.0
25/09:00am 21.3 17.6 2.6 29 8.9 SSW 11 13 6 7 1020.4 1019.5 0.0
25/08:30am 19.7 15.9 1.7 30 8.3 SSW 11 15 6 8 1020.3 1019.4 0.0
25/08:00am 18.1 14.7 2.0 34 7.4 SW 9 11 5 6 1019.9 1018.9 0.0
25/07:30am 16.4 13.0 2.1 38 6.5 SW 9 11 5 6 1019.6 1018.7 0.0
25/07:00am 16.0 12.7 2.4 40 6.2 SW 9 9 5 5 1019.4 1018.5 0.0
25/06:30am 16.1 12.8 2.2 39 6.3 SW 9 11 5 6 1019.3 1018.4 0.0
25/06:00am 16.7 13.8 2.7 39 6.4 SW 7 9 4 5 1018.9 1018.0 0.0
25/05:30am 16.8 13.6 2.8 39 6.5 SW 9 11 5 6 1018.9 1018.0 0.0
25/05:00am 17.3 13.7 2.9 38 6.7 SSW 11 13 6 7 1018.7 1017.8 0.0
25/04:30am 18.1 14.5 3.2 37 7.0 SSW 11 15 6 8 1018.8 1017.9 0.0
25/04:00am 18.1 14.5 2.8 36 7.1 SSW 11 13 6 7 1018.8 1017.9 0.0
25/03:30am 19.7 16.1 3.0 33 7.9 SSW 11 13 6 7 1019.0 1018.1 0.0
25/03:00am 20.7 16.9 3.9 33 8.2 S 13 15 7 8 1018.9 1018.0 0.0
25/02:30am 21.2 17.1 4.3 33 8.3 SSW 15 19 8 10 1019.0 1018.1 0.0
25/02:00am 21.3 17.7 4.8 34 8.2 SSW 13 15 7 8 1019.2 1018.3 0.0
25/01:30am 21.1 17.5 5.1 35 8.0 SSW 13 17 7 9 1019.1 1018.2 0.0
25/01:00am 20.9 17.1 5.7 37 7.6 SW 15 17 8 9 1019.2 1018.3 0.0
25/12:30am 20.9 17.5 5.7 37 7.7 SW 13 17 7 9 1019.3 1018.4 0.0
25/12:00am 21.2 18.0 5.1 35 8.0 SSW 11 13 6 7 1019.4 1018.5 0.0
 
Date/Time
EST
Temp
°C
App
Temp
°C
Dew
Point
°C
Rel
Hum
%
Delta-T
°C
Wind Press
QNH
hPa
Press
MSL
hPa
Rain since
9am
mm
Dir  Spd
km/h
Gust
km/h
Spd
kts
Gust
kts
24/11:30pm 21.6 18.4 5.1 34 8.3 SSW 11 13 6 7 1019.4 1018.5 0.0
24/11:00pm 21.9 18.7 4.9 33 8.5 SSW 11 13 6 7 1019.5 1018.6 0.0
24/10:30pm 22.5 19.4 5.4 33 8.7 SSW 11 13 6 7 1019.3 1018.4 0.0
24/10:00pm 23.2 20.6 6.1 33 8.8 S 9 11 5 6 1019.2 1018.3 0.0
24/09:30pm 24.0 20.4 6.7 33 9.1 SSE 15 17 8 9 1019.2 1018.3 0.0
24/09:00pm 24.8 21.3 7.4 33 9.2 SSE 15 17 8 9 1019.1 1018.2 0.0
24/08:30pm 25.6 22.5 7.2 31 9.8 SE 13 15 7 8 1018.9 1018.0 0.0
24/08:00pm 26.8 23.7 7.3 29 10.5 SE 13 17 7 9 1018.6 1017.7 0.0
24/07:30pm 26.9 23.7 6.9 28 10.7 SE 13 15 7 8 1018.2 1017.3 0.0
24/07:00pm 28.0 24.7 6.2 25 11.6 SE 13 19 7 10 1018.0 1017.1 0.0
24/06:30pm 28.1 23.9 5.6 24 11.8 SE 17 19 9 10 1017.7 1016.8 0.0
24/06:00pm 28.7 24.6 6.1 24 12.0 SE 17 22 9 12 1017.4 1016.5 0.0
24/05:30pm 30.0 24.8 5.3 21 13.1 SE 22 30 12 16 1017.1 1016.2 0.0
24/05:00pm 30.5 25.0 5.7 21 13.2 ESE 24 32 13 17 1016.9 1015.9 0.0
24/04:30pm 31.2 27.3 7.0 22 13.3 SE 17 22 9 12 1016.7 1015.7 0.0

Other Formats:

Comma delimited format used in spreadsheet applications
http://www.bom.gov.au/fwo/IDQ60801/IDQ60801.94338.axf

JavaScript Object Notation format (JSON) in row-major order
http://www.bom.gov.au/fwo/IDQ60801/IDQ60801.94338.json